Time;durP1;ratioP1;P1;durP2;ratioP2;P2;SDS_P1;SDS_P2;PMS_P1;PMS_P2;Temp;Humidity;BMP_temperature;BMP_pressure;BME280_temperature;BME280_humidity;BME280_pressure;Samples;Min_cycle;Max_cycle;Signal;HPM_P1;HPM_P2
2022/01/26 00:06:32;;;;;;;57.97;31.83;;;4.50;99.90;;;;;;5003893;28;20193;-74
2022/01/26 00:09:03;;;;;;;63.10;33.43;;;4.60;99.90;;;;;;5005809;28;20212;-74
2022/01/26 00:11:47;;;;;;;64.93;33.60;;;4.20;99.90;;;;;;5010901;28;20223;-74
2022/01/26 00:14:24;;;;;;;68.10;33.80;;;4.30;99.90;;;;;;5011013;28;20246;-74
2022/01/26 00:17:11;;;;;;;63.90;33.03;;;4.50;99.90;;;;;;5000281;28;20700;-74
2022/01/26 00:20:17;;;;;;;64.80;34.80;;;4.60;99.90;;;;;;5005993;28;20216;-74
2022/01/26 00:23:32;;;;;;;65.63;34.23;;;4.50;99.90;;;;;;5005906;28;20189;-74
2022/01/26 00:26:11;;;;;;;73.10;35.50;;;4.50;99.90;;;;;;4998516;28;20224;-74
2022/01/26 00:29:07;;;;;;;67.53;32.47;;;4.50;99.90;;;;;;5007574;28;20248;-74
2022/01/26 00:40:42;;;;;;;66.70;35.13;;;4.70;99.90;;;;;;5004401;28;20203;-74
2022/01/26 00:43:22;;;;;;;68.83;34.93;;;4.70;99.90;;;;;;5009418;28;20555;-74
2022/01/26 00:45:57;;;;;;;62.87;33.47;;;4.70;99.90;;;;;;5009392;28;20206;-74
2022/01/26 00:48:41;;;;;;;68.07;35.73;;;4.80;99.90;;;;;;5015305;28;20219;-75
2022/01/26 00:51:33;;;;;;;73.23;37.10;;;4.80;99.90;;;;;;5019236;28;20207;-74
2022/01/26 00:54:06;;;;;;;69.50;37.73;;;4.90;99.90;;;;;;5018634;28;20212;-74
2022/01/26 00:56:53;;;;;;;65.37;34.63;;;4.90;99.90;;;;;;4998282;28;20206;-74
2022/01/26 00:59:33;;;;;;;65.33;36.30;;;4.80;99.90;;;;;;5011456;28;20217;-74
2022/01/26 01:02:12;;;;;;;72.83;36.33;;;4.70;99.90;;;;;;5018189;28;20189;-74
2022/01/26 01:04:49;;;;;;;72.57;38.10;;;4.70;99.90;;;;;;5003959;28;20295;-74
2022/01/26 01:07:35;;;;;;;75.73;39.53;;;4.70;99.90;;;;;;5026072;28;20197;-74
2022/01/26 01:10:22;;;;;;;71.47;37.50;;;4.70;99.90;;;;;;5027253;28;20206;-74
2022/01/26 01:12:59;;;;;;;72.67;37.10;;;4.70;99.90;;;;;;5003905;28;20213;-74
2022/01/26 01:15:31;;;;;;;76.53;35.93;;;4.80;99.90;;;;;;5010362;28;20198;-74
2022/01/26 01:18:10;;;;;;;69.77;37.57;;;4.80;99.90;;;;;;5011822;28;20233;-74
2022/01/26 01:21:07;;;;;;;69.47;35.97;;;4.70;99.90;;;;;;5008290;28;20193;-75
2022/01/26 01:24:03;;;;;;;69.10;36.67;;;4.40;99.90;;;;;;5008135;28;20198;-74
2022/01/26 01:26:58;;;;;;;71.57;37.33;;;4.10;99.90;;;;;;5020535;28;20197;-74
2022/01/26 01:29:40;;;;;;;72.17;35.27;;;4.40;99.90;;;;;;5010708;28;20215;-76
2022/01/26 01:32:29;;;;;;;75.80;38.47;;;4.30;99.90;;;;;;5007310;28;20206;-74
2022/01/26 01:35:10;;;;;;;77.87;38.17;;;4.40;99.90;;;;;;5009307;28;20204;-74
2022/01/26 01:37:50;;;;;;;72.87;36.10;;;4.50;99.90;;;;;;5007610;28;20227;-78
2022/01/26 01:40:24;;;;;;;70.97;36.87;;;4.40;99.90;;;;;;5010988;28;20203;-74
2022/01/26 01:43:00;;;;;;;73.93;37.20;;;4.50;99.90;;;;;;5010660;28;20199;-74
2022/01/26 01:45:47;;;;;;;71.10;35.03;;;4.40;99.90;;;;;;5009710;28;20201;-74
2022/01/26 01:48:32;;;;;;;77.97;38.53;;;4.50;99.90;;;;;;5026874;28;20225;-75
2022/01/26 01:51:08;;;;;;;77.57;38.83;;;4.40;99.90;;;;;;5027577;28;20200;-74
2022/01/26 01:53:43;;;;;;;72.77;38.23;;;4.40;99.90;;;;;;5010736;28;20218;-76
2022/01/26 01:56:22;;;;;;;76.27;39.07;;;4.40;99.90;;;;;;5010691;28;20194;-74
2022/01/26 01:59:01;;;;;;;77.43;38.90;;;4.40;99.90;;;;;;5007560;28;20228;-74
2022/01/26 02:01:33;;;;;;;77.43;39.07;;;4.20;99.90;;;;;;5010675;28;20199;-74
2022/01/26 02:04:07;;;;;;;71.00;36.70;;;4.20;99.90;;;;;;5011569;28;20203;-74
2022/01/26 02:06:45;;;;;;;72.47;36.67;;;4.30;99.90;;;;;;5008630;28;20192;-75
2022/01/26 02:09:20;;;;;;;74.47;38.73;;;4.30;99.90;;;;;;5008800;28;20220;-75
2022/01/26 02:11:57;;;;;;;74.63;38.53;;;4.30;99.90;;;;;;5022250;28;20196;-74
2022/01/26 02:14:38;;;;;;;69.87;36.93;;;4.30;99.90;;;;;;5024391;28;20217;-74
2022/01/26 02:18:01;;;;;;;78.30;38.90;;;4.50;99.90;;;;;;5008062;28;20185;-77
2022/01/26 02:57:11;;;;;;;73.47;37.00;;;4.40;99.90;;;;;;4930008;28;20208;-74
2022/01/26 03:00:15;;;;;;;70.10;33.47;;;4.30;99.90;;;;;;4966646;28;20223;-74
2022/01/26 03:03:01;;;;;;;72.77;37.63;;;4.10;99.90;;;;;;5007716;28;20194;-74
2022/01/26 03:05:50;;;;;;;70.47;34.80;;;3.80;99.90;;;;;;5007373;28;20200;-75
2022/01/26 03:08:51;;;;;;;70.43;36.80;;;3.70;99.90;;;;;;5012627;28;20218;-74
2022/01/26 03:11:26;;;;;;;77.77;35.97;;;3.80;99.90;;;;;;5011187;28;20214;-74
2022/01/26 03:14:13;;;;;;;71.47;37.13;;;3.90;99.90;;;;;;5009002;28;20226;-74
2022/01/26 03:16:56;;;;;;;72.70;36.33;;;3.80;99.90;;;;;;5008121;28;20205;-74
2022/01/26 03:19:42;;;;;;;72.27;35.57;;;3.80;99.90;;;;;;5011164;28;20214;-77
2022/01/26 03:28:23;;;;;;;75.10;35.53;;;3.60;99.90;;;;;;5000985;28;20224;-77
2022/01/26 03:34:24;;;;;;;78.67;40.00;;;3.80;99.90;;;;;;5004352;28;20214;-73
2022/01/26 03:37:49;;;;;;;85.47;41.63;;;3.60;99.90;;;;;;5002790;28;20196;-75
2022/01/26 03:40:30;;;;;;;84.43;40.63;;;3.60;99.90;;;;;;5003075;28;20196;-74
2022/01/26 03:43:00;;;;;;;78.37;38.27;;;3.60;99.90;;;;;;5010559;28;20205;-74
2022/01/26 03:45:37;;;;;;;81.63;40.47;;;3.70;99.90;;;;;;5001277;28;20212;-74
2022/01/26 03:48:12;;;;;;;81.93;41.00;;;3.80;99.90;;;;;;5008710;28;20223;-74
2022/01/26 03:50:40;;;;;;;79.53;40.37;;;4.00;99.90;;;;;;5009639;28;20202;-76
2022/01/26 03:53:20;;;;;;;85.77;41.43;;;3.60;99.90;;;;;;5002097;28;20190;-73
2022/01/26 03:56:03;;;;;;;86.97;41.07;;;3.70;99.90;;;;;;5010358;28;20190;-74
2022/01/26 03:58:36;;;;;;;86.83;43.13;;;3.70;99.90;;;;;;5003201;28;20219;-74
2022/01/26 04:01:15;;;;;;;86.20;41.83;;;3.40;99.90;;;;;;5009576;28;20204;-74
2022/01/26 04:03:56;;;;;;;87.50;40.77;;;3.40;99.90;;;;;;5010413;28;20195;-74
2022/01/26 04:06:45;;;;;;;89.73;42.40;;;3.60;99.90;;;;;;5000117;28;20197;-73
2022/01/26 04:09:48;;;;;;;86.60;43.37;;;3.40;99.90;;;;;;5008462;28;20229;-73
2022/01/26 04:12:20;;;;;;;90.37;44.33;;;3.50;99.90;;;;;;4996740;28;20199;-73
2022/01/26 04:15:22;;;;;;;91.73;42.97;;;3.50;99.90;;;;;;4993787;28;20228;-74
2022/01/26 04:17:54;;;;;;;84.67;42.30;;;3.50;99.90;;;;;;5004819;28;20224;-74
2022/01/26 04:20:40;;;;;;;82.37;41.40;;;3.60;99.90;;;;;;5004153;28;20202;-74
2022/01/26 04:23:14;;;;;;;89.03;44.70;;;3.60;99.90;;;;;;5003228;28;20196;-74
2022/01/26 04:26:05;;;;;;;89.17;43.97;;;3.80;99.90;;;;;;5010322;28;20210;-74
2022/01/26 04:28:52;;;;;;;86.07;42.07;;;3.80;99.90;;;;;;5008740;28;20299;-74
2022/01/26 04:31:27;;;;;;;98.83;46.73;;;3.90;99.90;;;;;;5017779;28;20199;-74
2022/01/26 04:33:59;;;;;;;89.93;46.40;;;4.00;99.90;;;;;;5022229;28;20558;-75
2022/01/26 04:36:44;;;;;;;104.57;51.20;;;3.90;99.90;;;;;;5010323;28;20207;-75
2022/01/26 04:39:22;;;;;;;99.87;48.63;;;4.00;99.90;;;;;;5009130;28;20224;-74
2022/01/26 04:42:02;;;;;;;102.17;47.83;;;3.90;99.90;;;;;;5000637;28;20203;-74
2022/01/26 04:48:25;;;;;;;111.73;52.63;;;3.90;99.90;;;;;;5024794;28;20211;-74
2022/01/26 04:51:01;;;;;;;111.70;52.50;;;3.60;99.90;;;;;;5005943;28;20193;-74
2022/01/26 04:53:34;;;;;;;110.67;49.23;;;3.50;99.90;;;;;;5010112;28;20195;-74
2022/01/26 04:56:07;;;;;;;116.07;54.37;;;3.70;99.90;;;;;;5007702;28;20214;-74
2022/01/26 04:58:48;;;;;;;119.00;56.63;;;3.70;99.90;;;;;;5006536;28;20207;-74
2022/01/26 05:01:25;;;;;;;120.30;55.33;;;3.40;99.90;;;;;;5004092;28;20199;-74
2022/01/26 05:04:05;;;;;;;116.10;52.13;;;3.40;99.90;;;;;;5010025;28;20211;-74
2022/01/26 05:06:43;;;;;;;117.33;54.27;;;3.40;99.90;;;;;;5008312;28;20198;-74
2022/01/26 05:09:21;;;;;;;123.23;55.27;;;3.50;99.90;;;;;;5009513;28;20220;-74
2022/01/26 05:12:18;;;;;;;119.30;51.03;;;3.50;99.90;;;;;;5009322;28;20200;-77
2022/01/26 05:15:09;;;;;;;105.90;49.97;;;3.70;99.90;;;;;;5006143;28;20218;-74
2022/01/26 05:17:45;;;;;;;106.63;48.17;;;3.80;99.90;;;;;;5010905;28;20192;-75
2022/01/26 05:20:32;;;;;;;102.57;45.67;;;3.70;99.90;;;;;;5009872;28;20196;-74
2022/01/26 05:23:16;;;;;;;103.70;47.50;;;3.60;99.90;;;;;;5010469;28;20200;-75
2022/01/26 05:25:50;;;;;;;96.20;44.50;;;3.60;99.90;;;;;;5011499;28;20200;-74
2022/01/26 05:28:57;;;;;;;103.40;48.50;;;3.70;99.90;;;;;;5003041;28;20223;-74
2022/01/26 05:35:10;;;;;;;95.80;45.43;;;3.80;99.90;;;;;;4981369;28;20215;-77
2022/01/26 05:38:14;;;;;;;104.20;48.10;;;3.80;99.90;;;;;;5013950;28;20205;-74
2022/01/26 05:41:01;;;;;;;101.67;47.00;;;3.80;99.90;;;;;;5008042;28;20203;-74
2022/01/26 05:43:55;;;;;;;101.87;48.40;;;3.80;99.90;;;;;;5016800;28;20200;-74
2022/01/26 05:46:35;;;;;;;97.20;45.43;;;3.90;99.90;;;;;;5014765;28;20196;-77
2022/01/26 05:52:07;;;;;;;99.33;44.83;;;3.70;99.90;;;;;;5007011;28;20211;-74
2022/01/26 05:54:47;;;;;;;102.40;45.60;;;3.70;99.90;;;;;;5010161;28;20217;-75
2022/01/26 05:57:40;;;;;;;96.07;45.27;;;3.60;99.90;;;;;;5009273;28;20195;-74
2022/01/26 06:00:32;;;;;;;96.67;43.37;;;3.60;99.90;;;;;;5026801;28;20206;-74
2022/01/26 06:03:08;;;;;;;91.33;42.83;;;3.70;99.90;;;;;;5006908;28;20292;-76
2022/01/26 06:05:41;;;;;;;100.63;46.07;;;3.90;99.90;;;;;;5006687;28;20207;-75
2022/01/26 06:08:29;;;;;;;105.30;46.13;;;3.60;99.90;;;;;;5019586;28;20226;-76
2022/01/26 06:11:27;;;;;;;100.20;46.80;;;3.60;99.90;;;;;;5005664;28;20204;-74
2022/01/26 06:14:03;;;;;;;94.97;43.73;;;3.60;99.90;;;;;;5009145;28;20205;-74
2022/01/26 06:16:54;;;;;;;96.87;44.47;;;3.80;99.90;;;;;;5008728;28;20211;-74
2022/01/26 06:19:28;;;;;;;99.77;44.63;;;3.90;99.90;;;;;;4994936;28;20223;-79
2022/01/26 06:22:04;;;;;;;92.00;42.33;;;3.90;99.90;;;;;;5017963;28;20203;-74
2022/01/26 06:25:05;;;;;;;109.07;48.27;;;3.90;99.90;;;;;;5012119;28;20198;-74
2022/01/26 06:27:40;;;;;;;101.80;45.07;;;3.90;99.90;;;;;;5008944;28;20196;-74
2022/01/26 06:30:12;;;;;;;101.33;46.47;;;3.90;99.90;;;;;;5013459;28;20203;-74
2022/01/26 06:32:46;;;;;;;97.03;46.13;;;3.70;99.90;;;;;;5013326;28;20199;-75
2022/01/26 06:35:43;;;;;;;96.10;44.50;;;3.70;99.90;;;;;;5008159;28;20218;-75
2022/01/26 06:38:24;;;;;;;105.47;46.23;;;3.60;99.90;;;;;;5007700;28;20222;-74
2022/01/26 06:41:06;;;;;;;101.53;46.73;;;3.60;99.90;;;;;;5024849;28;20207;-74
2022/01/26 06:43:59;;;;;;;103.60;48.63;;;3.70;99.90;;;;;;5012212;28;20203;-74
2022/01/26 06:47:17;;;;;;;102.87;49.27;;;3.60;99.90;;;;;;5008546;28;20194;-74
2022/01/26 06:50:19;;;;;;;108.47;48.07;;;3.70;99.90;;;;;;5009180;28;20202;-74
2022/01/26 06:53:08;;;;;;;92.30;44.30;;;3.70;99.90;;;;;;5006400;28;20207;-74
2022/01/26 06:55:46;;;;;;;95.93;44.33;;;3.60;99.90;;;;;;5008379;28;20219;-74
2022/01/26 06:58:46;;;;;;;98.37;42.70;;;3.70;99.90;;;;;;5008169;28;20223;-73
2022/01/26 07:01:40;;;;;;;87.97;41.87;;;3.60;99.90;;;;;;5008610;28;20206;-73
2022/01/26 07:04:14;;;;;;;93.70;45.13;;;3.60;99.90;;;;;;5006301;28;20207;-73
2022/01/26 07:06:46;;;;;;;102.60;47.97;;;3.50;99.90;;;;;;5011182;28;20198;-73
2022/01/26 07:09:23;;;;;;;103.90;46.23;;;3.40;99.90;;;;;;5011138;28;20523;-74
2022/01/26 07:11:51;;;;;;;97.77;47.77;;;3.60;99.90;;;;;;5010819;28;20539;-74
2022/01/26 07:19:46;;;;;;;106.07;48.50;;;3.50;99.90;;;;;;5010998;28;20200;-74
2022/01/26 07:20:53;;;;;;;101.30;45.33;;;3.50;99.90;;;;;;5005108;28;20200;-74
2022/01/26 07:23:04;;;;;;;108.93;46.97;;;3.40;99.90;;;;;;5008558;28;20207;-74
2022/01/26 07:25:32;;;;;;;102.07;44.53;;;3.50;99.90;;;;;;5009509;28;20575;-74
2022/01/26 07:28:02;;;;;;;103.20;45.47;;;3.50;99.90;;;;;;5009546;28;20222;-74
2022/01/26 07:30:30;;;;;;;91.53;44.00;;;3.60;99.90;;;;;;5011061;28;20690;-74
2022/01/26 07:32:58;;;;;;;99.67;43.37;;;3.60;99.90;;;;;;5011404;28;20200;-74
2022/01/26 07:35:26;;;;;;;102.30;46.20;;;3.60;99.90;;;;;;5010783;28;20234;-74
2022/01/26 07:37:57;;;;;;;106.97;46.97;;;3.40;99.90;;;;;;5003761;28;20218;-74
2022/01/26 07:40:25;;;;;;;104.83;48.83;;;3.40;99.90;;;;;;5012118;28;20202;-74
2022/01/26 07:42:53;;;;;;;104.87;46.63;;;3.40;99.90;;;;;;5017752;28;20229;-73
2022/01/26 07:45:35;;;;;;;104.07;46.93;;;3.30;99.90;;;;;;5012967;28;20230;-74
2022/01/26 07:48:04;;;;;;;105.47;48.27;;;3.40;99.90;;;;;;5008704;28;20221;-74
2022/01/26 07:50:32;;;;;;;99.87;45.53;;;3.20;99.90;;;;;;5006916;28;20195;-74
2022/01/26 07:53:00;;;;;;;103.70;49.90;;;3.20;99.90;;;;;;5008558;28;20201;-74
2022/01/26 07:55:28;;;;;;;112.23;48.43;;;3.30;99.90;;;;;;5008878;28;20207;-73
2022/01/26 07:57:56;;;;;;;102.13;48.13;;;3.20;99.90;;;;;;5016590;28;20225;-74
2022/01/26 08:00:24;;;;;;;109.47;49.87;;;3.10;99.90;;;;;;5009316;28;20203;-74
2022/01/26 08:02:54;;;;;;;109.93;47.43;;;3.20;99.90;;;;;;5010435;28;20200;-74
2022/01/26 08:05:24;;;;;;;116.10;49.20;;;3.30;99.90;;;;;;5011828;28;20216;-74
2022/01/26 08:07:52;;;;;;;105.93;49.10;;;3.40;99.90;;;;;;5009127;28;20218;-74
2022/01/26 08:10:21;;;;;;;106.30;49.77;;;3.30;99.90;;;;;;5008962;28;20208;-74
2022/01/26 08:12:49;;;;;;;109.67;48.27;;;3.30;99.90;;;;;;5006495;28;20692;-73
2022/01/26 08:15:17;;;;;;;100.97;45.80;;;3.40;99.90;;;;;;5011463;28;20330;-73
2022/01/26 08:17:44;;;;;;;109.70;47.87;;;3.30;99.90;;;;;;5013261;28;20721;-73
2022/01/26 08:20:32;;;;;;;116.23;49.93;;;3.20;99.90;;;;;;5021301;28;20680;-73
2022/01/26 08:22:59;;;;;;;116.93;51.50;;;3.20;99.90;;;;;;5024717;28;20200;-74
2022/01/26 08:25:35;;;;;;;114.53;46.70;;;3.20;99.90;;;;;;5013502;28;20205;-73
2022/01/26 08:28:10;;;;;;;109.23;47.80;;;3.20;99.90;;;;;;5009812;28;20233;-73
2022/01/26 08:30:38;;;;;;;105.13;45.40;;;3.10;99.90;;;;;;5016223;28;20200;-73
2022/01/26 08:33:06;;;;;;;120.53;49.43;;;3.10;99.90;;;;;;5007511;28;20195;-73
2022/01/26 08:35:37;;;;;;;118.17;50.67;;;3.10;99.90;;;;;;5008177;28;20195;-74
2022/01/26 08:38:05;;;;;;;115.07;47.87;;;3.00;99.90;;;;;;5017661;28;20223;-74
2022/01/26 08:40:33;;;;;;;110.60;48.73;;;3.20;99.90;;;;;;5006252;28;20203;-73
2022/01/26 08:43:01;;;;;;;109.17;46.93;;;3.10;99.90;;;;;;5024582;28;20205;-74
2022/01/26 08:45:29;;;;;;;113.40;49.97;;;3.00;99.90;;;;;;4995555;28;20204;-73
2022/01/26 08:47:56;;;;;;;109.97;42.23;;;3.10;99.90;;;;;;5008236;28;20769;-73
2022/01/26 08:50:23;;;;;;;115.87;48.70;;;3.00;99.90;;;;;;5007550;28;20207;-73
2022/01/26 08:52:52;;;;;;;116.10;45.43;;;3.00;99.90;;;;;;5004911;28;20199;-73
2022/01/26 08:55:20;;;;;;;115.93;46.90;;;3.10;99.90;;;;;;5009241;28;20200;-73
2022/01/26 08:57:48;;;;;;;124.10;47.87;;;3.00;99.90;;;;;;5006560;28;20231;-73
2022/01/26 09:00:17;;;;;;;109.83;42.43;;;2.90;99.90;;;;;;5000724;28;20210;-73
2022/01/26 09:02:51;;;;;;;115.97;48.00;;;2.90;99.90;;;;;;5006435;28;20194;-73
2022/01/26 09:05:19;;;;;;;123.83;49.00;;;2.80;99.90;;;;;;5007819;28;20211;-73
2022/01/26 09:07:49;;;;;;;114.77;48.77;;;2.90;99.90;;;;;;5001637;28;20219;-72
2022/01/26 09:10:18;;;;;;;123.63;50.90;;;2.90;99.90;;;;;;5000712;28;20197;-72
2022/01/26 09:12:47;;;;;;;122.87;48.60;;;2.90;99.90;;;;;;5002893;28;20207;-72
2022/01/26 09:15:15;;;;;;;124.17;48.90;;;2.90;99.90;;;;;;4994600;28;20230;-73
2022/01/26 09:17:46;;;;;;;123.80;48.57;;;3.00;99.90;;;;;;4999609;28;20227;-73
2022/01/26 09:20:14;;;;;;;115.30;48.40;;;2.90;99.90;;;;;;5012881;28;20195;-73
2022/01/26 09:22:41;;;;;;;121.93;50.30;;;2.90;99.90;;;;;;5008410;28;20563;-74
2022/01/26 09:25:09;;;;;;;116.57;48.43;;;2.90;99.90;;;;;;5009936;28;20746;-73
2022/01/26 09:27:42;;;;;;;112.13;45.33;;;2.90;99.90;;;;;;5020839;28;20196;-73
2022/01/26 09:30:11;;;;;;;107.53;46.37;;;3.00;99.90;;;;;;5014435;28;20211;-73
2022/01/26 09:32:40;;;;;;;111.90;46.13;;;3.00;99.90;;;;;;5008846;28;20192;-74
2022/01/26 09:35:10;;;;;;;108.73;45.37;;;3.10;99.90;;;;;;5008128;28;20224;-74
2022/01/26 09:37:37;;;;;;;118.50;46.60;;;3.20;99.90;;;;;;5011355;28;20224;-74
2022/01/26 09:40:06;;;;;;;119.00;47.73;;;3.20;99.90;;;;;;5009852;28;20207;-73
2022/01/26 09:42:51;;;;;;;110.87;45.00;;;3.20;99.90;;;;;;5009216;28;20213;-74
2022/01/26 09:45:19;;;;;;;104.23;44.03;;;3.10;99.90;;;;;;5014393;28;20192;-73
2022/01/26 09:47:53;;;;;;;111.57;45.07;;;3.10;99.90;;;;;;5009218;28;20303;-73
2022/01/26 09:50:21;;;;;;;112.27;44.83;;;3.10;99.90;;;;;;5004802;28;20195;-73
2022/01/26 09:52:50;;;;;;;108.33;43.87;;;3.10;99.90;;;;;;5013099;28;20195;-74
2022/01/26 09:55:17;;;;;;;107.97;44.20;;;3.20;99.90;;;;;;5003789;28;20216;-73
2022/01/26 09:57:58;;;;;;;116.30;46.27;;;3.10;99.90;;;;;;5012443;28;20223;-73
2022/01/26 10:00:26;;;;;;;106.50;45.47;;;3.10;99.90;;;;;;5005281;28;20523;-73
2022/01/26 10:03:02;;;;;;;107.37;44.73;;;3.00;99.90;;;;;;5009657;28;20208;-73
2022/01/26 10:05:39;;;;;;;116.30;47.77;;;3.10;99.90;;;;;;5011593;28;20716;-73
2022/01/26 10:08:12;;;;;;;105.60;41.63;;;3.00;99.90;;;;;;5010607;28;20222;-74
2022/01/26 10:19:05;;;;;;;123.83;48.50;;;3.00;99.90;;;;;;4998915;28;20231;-74
2022/01/26 10:21:33;;;;;;;126.80;46.83;;;3.00;99.90;;;;;;5010844;28;20205;-74
2022/01/26 10:24:09;;;;;;;122.17;50.03;;;2.90;99.90;;;;;;5008883;28;20203;-74
2022/01/26 10:26:37;;;;;;;122.30;49.10;;;2.90;99.90;;;;;;5008885;28;20208;-73
2022/01/26 10:29:20;;;;;;;117.70;46.47;;;2.90;99.90;;;;;;5009463;28;20216;-73
2022/01/26 10:31:47;;;;;;;130.33;47.07;;;2.90;99.90;;;;;;5007001;28;20206;-74
2022/01/26 10:34:17;;;;;;;126.70;50.93;;;2.90;99.90;;;;;;5010021;28;20223;-73
2022/01/26 10:36:46;;;;;;;138.37;49.87;;;2.90;99.90;;;;;;5013662;28;20203;-74
2022/01/26 10:39:21;;;;;;;133.97;52.47;;;3.00;99.90;;;;;;5010636;28;20697;-74
2022/01/26 10:41:52;;;;;;;137.73;51.67;;;2.90;99.90;;;;;;5005951;28;20197;-74
2022/01/26 10:44:29;;;;;;;133.30;54.13;;;2.90;99.90;;;;;;5003971;28;20200;-74
2022/01/26 10:47:00;;;;;;;124.70;47.50;;;2.90;99.90;;;;;;5008792;28;20241;-74
2022/01/26 10:49:44;;;;;;;130.70;49.97;;;2.90;99.90;;;;;;5011979;28;20593;-74
2022/01/26 10:52:34;;;;;;;130.40;52.27;;;3.00;99.90;;;;;;5009569;28;20566;-74
2022/01/26 10:55:01;;;;;;;131.40;51.47;;;3.10;99.90;;;;;;5021012;28;20206;-73
2022/01/26 10:57:28;;;;;;;136.83;52.70;;;3.10;99.90;;;;;;5008682;28;20223;-74
2022/01/26 10:59:58;;;;;;;137.37;51.80;;;3.20;99.90;;;;;;5010978;28;20194;-74
2022/01/26 11:02:28;;;;;;;137.10;52.90;;;3.20;99.90;;;;;;5006097;28;20204;-74
2022/01/26 11:04:55;;;;;;;122.53;50.87;;;3.10;99.90;;;;;;5021950;28;20220;-73
2022/01/26 11:07:31;;;;;;;128.03;49.53;;;3.10;99.90;;;;;;5007148;28;20203;-74
2022/01/26 11:10:03;;;;;;;126.30;50.60;;;3.20;99.90;;;;;;5004471;28;20205;-74
2022/01/26 11:12:31;;;;;;;127.97;50.40;;;3.30;99.90;;;;;;5007875;28;20568;-74
2022/01/26 11:15:07;;;;;;;129.30;49.37;;;3.40;99.90;;;;;;5008431;28;20219;-74
2022/01/26 11:17:36;;;;;;;128.90;52.83;;;3.40;99.90;;;;;;5010287;28;20253;-74
2022/01/26 11:20:18;;;;;;;128.17;50.27;;;3.30;99.90;;;;;;5016711;28;20210;-74
2022/01/26 11:22:50;;;;;;;137.80;53.63;;;3.20;99.90;;;;;;5005844;28;20202;-74
2022/01/26 11:25:18;;;;;;;120.60;49.13;;;3.30;99.90;;;;;;5002450;28;20204;-74
2022/01/26 11:27:45;;;;;;;136.40;52.90;;;3.40;99.90;;;;;;5010233;28;20228;-74
2022/01/26 11:30:21;;;;;;;131.20;49.97;;;3.30;99.90;;;;;;5007574;28;20189;-74
2022/01/26 11:32:54;;;;;;;127.47;48.23;;;3.20;99.90;;;;;;5016375;28;20661;-73
2022/01/26 11:35:24;;;;;;;135.03;54.67;;;3.10;99.90;;;;;;4997324;28;20203;-73
2022/01/26 11:46:59;;;;;;;121.00;44.20;;;3.20;99.90;;;;;;5010494;28;20191;-74
2022/01/26 11:49:32;;;;;;;125.23;49.13;;;3.10;99.90;;;;;;5011361;28;20219;-73
2022/01/26 11:52:00;;;;;;;123.47;50.53;;;3.10;99.90;;;;;;5005075;28;20216;-74
2022/01/26 11:54:29;;;;;;;131.00;51.93;;;3.10;99.90;;;;;;4996787;28;20208;-74
2022/01/26 11:57:01;;;;;;;133.70;50.03;;;3.10;99.90;;;;;;4998931;28;20199;-73
2022/01/26 11:59:32;;;;;;;133.07;49.40;;;3.20;99.90;;;;;;5003495;28;20216;-73
2022/01/26 12:02:26;;;;;;;122.40;48.00;;;3.20;99.90;;;;;;5023078;28;20202;-74
2022/01/26 12:05:00;;;;;;;126.10;49.10;;;3.30;99.90;;;;;;5008395;28;20228;-74
2022/01/26 12:07:29;;;;;;;122.83;47.73;;;3.30;99.90;;;;;;5004727;28;20220;-73
2022/01/26 12:09:57;;;;;;;128.67;48.97;;;3.20;99.90;;;;;;5009756;28;20231;-73
2022/01/26 12:12:25;;;;;;;122.97;49.30;;;3.30;99.90;;;;;;5011180;28;20209;-73
2022/01/26 12:15:03;;;;;;;122.53;48.30;;;3.30;99.90;;;;;;5009551;28;20202;-73
2022/01/26 12:17:36;;;;;;;119.87;48.50;;;3.40;99.90;;;;;;5006526;28;20559;-74
2022/01/26 12:32:14;;;;;;;94.17;37.47;;;3.40;99.90;;;;;;4991320;28;20206;-74
2022/01/26 12:34:52;;;;;;;93.20;39.03;;;3.50;99.90;;;;;;5005006;28;20211;-74
2022/01/26 12:37:35;;;;;;;94.23;39.70;;;3.40;99.90;;;;;;4992857;28;20202;-74
2022/01/26 12:43:03;;;;;;;97.70;40.03;;;3.40;99.90;;;;;;5007070;28;20195;-74
2022/01/26 12:45:30;;;;;;;88.93;38.87;;;3.50;99.90;;;;;;5008700;28;20203;-74
2022/01/26 12:47:59;;;;;;;87.07;38.40;;;3.60;99.90;;;;;;5007618;28;20226;-74
2022/01/26 12:50:38;;;;;;;98.40;37.80;;;3.50;99.90;;;;;;5004097;28;20202;-74
2022/01/26 12:53:06;;;;;;;94.70;38.13;;;3.50;99.90;;;;;;5002024;28;20224;-74
2022/01/26 12:55:35;;;;;;;84.00;37.97;;;3.60;99.90;;;;;;5006335;28;20562;-74
2022/01/26 12:58:04;;;;;;;80.30;36.93;;;3.50;99.90;;;;;;5013776;28;20211;-74
2022/01/26 13:00:42;;;;;;;89.73;37.90;;;3.50;99.90;;;;;;5008987;28;20201;-73
2022/01/26 13:03:14;;;;;;;89.43;38.07;;;3.40;99.90;;;;;;5024962;28;20208;-73
2022/01/26 13:05:43;;;;;;;92.70;37.50;;;3.40;99.90;;;;;;5013777;28;20215;-73
2022/01/26 13:08:11;;;;;;;86.03;35.93;;;3.50;99.90;;;;;;5006601;28;20221;-73
2022/01/26 13:10:40;;;;;;;84.13;36.53;;;3.60;99.90;;;;;;5012308;28;20279;-73
2022/01/26 13:13:12;;;;;;;83.60;35.77;;;3.50;99.90;;;;;;5012282;28;20215;-73
2022/01/26 13:15:47;;;;;;;81.07;37.63;;;3.50;99.90;;;;;;5014708;28;20202;-73
2022/01/26 13:18:25;;;;;;;84.97;34.37;;;3.50;99.90;;;;;;5027707;28;20221;-73
2022/01/26 13:23:49;;;;;;;81.80;34.27;;;3.40;99.90;;;;;;5007679;28;20689;-74
2022/01/26 13:26:30;;;;;;;84.90;33.03;;;3.40;99.90;;;;;;5018761;28;20244;-74
2022/01/26 13:29:18;;;;;;;72.17;33.03;;;3.40;99.90;;;;;;5008445;28;20219;-73
2022/01/26 13:37:50;;;;;;;81.07;33.80;;;3.50;99.90;;;;;;5065798;28;20977;-74
2022/01/26 13:40:31;;;;;;;74.60;33.87;;;3.60;99.90;;;;;;5072540;28;20197;-74
2022/01/26 13:43:29;;;;;;;75.33;33.03;;;3.50;99.90;;;;;;5066713;28;20200;-74
2022/01/26 13:46:26;;;;;;;69.73;32.27;;;3.50;99.90;;;;;;5064585;28;20202;-74
2022/01/26 13:49:08;;;;;;;73.07;30.77;;;3.50;99.90;;;;;;5066821;28;20232;-74
2022/01/26 13:51:42;;;;;;;67.00;31.57;;;3.50;99.90;;;;;;5067331;28;20196;-74
2022/01/26 13:54:30;;;;;;;74.37;32.13;;;3.60;99.90;;;;;;5067851;28;20549;-74
2022/01/26 13:58:04;;;;;;;67.87;30.63;;;3.60;99.90;;;;;;5067355;28;20233;-74
2022/01/26 14:01:03;;;;;;;70.87;31.30;;;3.60;99.90;;;;;;5059743;28;20201;-74
2022/01/26 14:03:33;;;;;;;71.20;32.47;;;3.70;99.90;;;;;;5065988;28;20194;-74
2022/01/26 14:06:01;;;;;;;72.90;32.37;;;3.70;99.90;;;;;;5065278;28;20195;-74
2022/01/26 14:08:29;;;;;;;70.13;34.10;;;3.70;99.90;;;;;;5062430;28;20239;-74
2022/01/26 14:10:57;;;;;;;70.43;31.13;;;3.60;99.90;;;;;;5067837;28;20196;-73
2022/01/26 14:13:26;;;;;;;71.10;30.60;;;3.60;99.90;;;;;;5079440;28;20206;-74
2022/01/26 14:15:58;;;;;;;65.27;27.40;;;3.60;99.90;;;;;;5063228;28;20225;-74
2022/01/26 14:18:47;;;;;;;70.80;30.40;;;3.60;99.90;;;;;;5065654;28;20228;-74
2022/01/26 14:22:29;;;;;;;63.67;29.03;;;3.50;99.90;;;;;;5064762;28;20197;-74
2022/01/26 14:25:14;;;;;;;73.60;29.63;;;3.50;99.90;;;;;;5064635;28;20202;-74
2022/01/26 14:27:52;;;;;;;68.93;28.33;;;3.40;99.90;;;;;;5065780;28;20206;-74
2022/01/26 14:30:33;;;;;;;62.80;28.30;;;3.40;99.90;;;;;;5062004;28;20206;-74
2022/01/26 14:56:00;;;;;;;61.87;28.00;;;3.60;99.90;;;;;;5050294;28;20542;-74
2022/01/26 15:19:25;;;;;;;76.93;33.77;;;3.50;99.90;;;;;;5044936;28;20218;-73
2022/01/26 15:33:41;;;;;;;73.93;30.87;;;3.50;99.90;;;;;;5048910;28;20198;-73
2022/01/26 15:48:43;;;;;;;76.57;31.57;;;3.60;99.90;;;;;;5038889;28;20203;-73
2022/01/26 15:50:45;;;;;;;73.17;32.60;;;3.50;99.90;;;;;;5048673;28;20194;-73
2022/01/26 15:57:19;;;;;;;73.03;33.90;;;3.60;99.90;;;;;;5046609;28;20209;-73
2022/01/26 15:59:23;;;;;;;77.73;33.70;;;3.50;99.90;;;;;;5050658;28;20230;-73
2022/01/26 16:05:04;;;;;;;78.83;37.53;;;3.60;99.90;;;;;;5050858;28;20198;-73
2022/01/26 16:07:45;;;;;;;84.27;36.47;;;3.60;99.90;;;;;;5046925;28;20211;-72
2022/01/26 16:16:32;;;;;;;80.83;33.83;;;3.50;99.90;;;;;;5050394;28;20709;-73
2022/01/26 16:21:18;;;;;;;76.30;34.10;;;3.60;99.90;;;;;;5050332;28;20202;-73
2022/01/26 16:27:17;;;;;;;75.47;33.07;;;3.60;99.90;;;;;;5039239;28;20190;-73
2022/01/26 16:38:02;;;;;;;81.00;34.37;;;3.50;99.90;;;;;;5045147;28;20228;-75
2022/01/26 17:11:06;;;;;;;86.23;36.60;;;3.40;99.90;;;;;;5051699;28;20202;-74
2022/01/26 17:12:13;;;;;;;80.63;36.57;;;3.30;99.90;;;;;;5045659;28;20193;-75
2022/01/26 18:13:02;;;;;;;85.50;37.47;;;3.30;99.90;;;;;;5029826;28;20190;-75
2022/01/26 18:13:27;;;;;;;77.77;32.63;;;3.30;99.90;;;;;;5025609;28;20217;-75
2022/01/26 18:15:57;;;;;;;82.43;34.70;;;3.30;99.90;;;;;;5043849;28;20201;-76
2022/01/26 18:26:46;;;;;;;78.30;34.93;;;3.30;99.90;;;;;;5050048;28;20203;-75
2022/01/26 18:32:22;;;;;;;83.53;36.43;;;3.30;99.90;;;;;;5046171;28;20201;-75